Time;durP1;ratioP1;P1;durP2;ratioP2;P2;SDS_P1;SDS_P2;PMS_P1;PMS_P2;Temp;Humidity;BMP_temperature;BMP_pressure;BME280_temperature;BME280_humidity;BME280_pressure;Samples;Min_cycle;Max_cycle;Signal;HPM_P1;HPM_P2
2021/08/06 00:00:30;;;;;;;2.97;2.78;;;20.30;71.90;;;;;;5052300;28;20053;-75
2021/08/06 00:02:56;;;;;;;3.47;3.17;;;20.30;71.90;;;;;;5051318;28;20021;-73
2021/08/06 00:05:22;;;;;;;3.13;2.78;;;20.30;72.10;;;;;;5052252;28;20029;-74
2021/08/06 00:07:47;;;;;;;3.67;3.38;;;20.30;72.10;;;;;;5052490;28;20473;-74
2021/08/06 00:10:15;;;;;;;3.30;3.00;;;20.30;72.20;;;;;;5050904;28;20333;-74
2021/08/06 00:12:41;;;;;;;4.03;2.88;;;20.30;72.40;;;;;;5050949;28;20037;-75
2021/08/06 00:15:07;;;;;;;3.97;3.22;;;20.20;72.40;;;;;;5050666;28;20024;-73
2021/08/06 00:17:33;;;;;;;3.10;2.78;;;20.30;72.50;;;;;;5054581;28;20534;-73
2021/08/06 00:19:59;;;;;;;3.58;3.10;;;20.20;72.50;;;;;;5054190;28;20021;-74
2021/08/06 00:22:24;;;;;;;3.28;2.97;;;20.20;72.70;;;;;;5054188;28;20142;-75
2021/08/06 00:24:50;;;;;;;2.88;2.67;;;20.20;72.70;;;;;;5054050;28;20059;-74
2021/08/06 00:27:15;;;;;;;2.95;2.63;;;20.20;72.80;;;;;;5054093;28;20027;-74
2021/08/06 00:29:41;;;;;;;2.95;2.63;;;20.20;72.90;;;;;;5054054;28;20070;-74
2021/08/06 00:32:07;;;;;;;3.95;2.90;;;20.20;73.00;;;;;;5053562;28;20029;-75
2021/08/06 00:34:32;;;;;;;2.92;2.72;;;20.20;73.10;;;;;;5054410;28;20108;-73
2021/08/06 00:36:58;;;;;;;3.55;2.55;;;20.20;73.20;;;;;;5075610;28;20031;-74
2021/08/06 00:39:24;;;;;;;3.40;2.60;;;20.10;73.20;;;;;;5075772;28;20031;-74
2021/08/06 00:41:49;;;;;;;3.15;2.63;;;20.10;73.40;;;;;;5057559;28;20510;-74
2021/08/06 00:44:15;;;;;;;2.45;2.28;;;20.00;73.50;;;;;;5057769;28;20027;-74
2021/08/06 00:46:41;;;;;;;2.45;2.22;;;20.00;73.70;;;;;;5057657;28;20021;-74
2021/08/06 00:49:06;;;;;;;2.30;2.10;;;20.00;73.90;;;;;;5075487;28;20553;-73
2021/08/06 00:51:33;;;;;;;2.40;2.20;;;20.00;73.90;;;;;;5057457;28;20352;-73
2021/08/06 00:53:59;;;;;;;2.80;2.30;;;20.00;74.00;;;;;;5057295;28;20074;-74
2021/08/06 00:56:24;;;;;;;2.40;2.20;;;19.90;74.10;;;;;;5057629;28;20025;-74
2021/08/06 00:58:50;;;;;;;2.20;2.00;;;19.90;74.20;;;;;;5057154;28;20066;-74
2021/08/06 01:01:19;;;;;;;2.67;2.10;;;19.90;74.20;;;;;;5057177;28;20023;-74
2021/08/06 01:04:03;;;;;;;3.17;2.10;;;19.90;74.30;;;;;;5075462;28;20085;-74
2021/08/06 01:06:57;;;;;;;2.53;1.95;;;19.90;74.50;;;;;;5057137;28;20032;-74
2021/08/06 01:09:29;;;;;;;1.98;1.88;;;19.90;74.50;;;;;;5057051;28;20535;-74
2021/08/06 01:11:58;;;;;;;2.33;2.10;;;19.90;74.60;;;;;;5074952;28;20029;-73
2021/08/06 01:14:27;;;;;;;2.10;1.90;;;19.80;74.60;;;;;;5075068;28;20553;-73
2021/08/06 01:16:57;;;;;;;2.00;1.80;;;19.80;74.70;;;;;;5056893;28;20028;-74
2021/08/06 01:20:16;;;;;;;1.90;1.70;;;19.80;74.80;;;;;;5074710;28;20049;-73
2021/08/06 01:22:48;;;;;;;1.90;1.60;;;19.90;74.90;;;;;;5074775;28;20491;-73
2021/08/06 01:25:14;;;;;;;2.22;2.03;;;19.80;74.80;;;;;;5056780;28;20036;-74
2021/08/06 01:27:43;;;;;;;2.83;2.10;;;19.80;74.80;;;;;;5057133;28;20033;-74
2021/08/06 01:30:10;;;;;;;2.22;1.83;;;19.90;75.00;;;;;;5056740;28;20025;-73
2021/08/06 01:32:36;;;;;;;2.33;1.77;;;19.80;75.00;;;;;;5056536;28;20032;-73
2021/08/06 01:35:03;;;;;;;2.83;1.90;;;19.80;75.10;;;;;;5056562;28;20494;-75
2021/08/06 01:37:29;;;;;;;3.40;1.70;;;19.80;75.20;;;;;;5073323;28;20051;-74
2021/08/06 01:39:55;;;;;;;1.70;1.60;;;19.80;75.20;;;;;;5056555;28;20024;-74
2021/08/06 01:42:24;;;;;;;2.67;2.13;;;19.80;75.20;;;;;;5056686;28;20500;-74
2021/08/06 01:44:54;;;;;;;3.65;2.00;;;19.80;75.30;;;;;;5056353;28;20028;-74
2021/08/06 01:47:38;;;;;;;3.63;2.10;;;19.90;75.40;;;;;;5073549;28;20024;-74
2021/08/06 01:50:14;;;;;;;2.08;1.88;;;19.90;75.40;;;;;;5056253;28;20070;-73
2021/08/06 01:52:54;;;;;;;2.10;1.88;;;19.80;75.40;;;;;;5074170;28;20029;-75
2021/08/06 01:55:20;;;;;;;2.22;1.90;;;19.90;75.50;;;;;;5074219;28;20025;-73
2021/08/06 01:57:49;;;;;;;2.13;1.90;;;19.80;75.50;;;;;;5056062;28;20013;-74
2021/08/06 02:00:14;;;;;;;2.05;1.90;;;19.90;75.60;;;;;;5056175;28;20069;-74
2021/08/06 02:02:41;;;;;;;2.10;1.60;;;19.80;75.60;;;;;;5056048;28;20124;-73
2021/08/06 02:05:09;;;;;;;2.30;2.10;;;19.80;75.60;;;;;;5073985;28;20504;-73
2021/08/06 02:07:35;;;;;;;1.83;1.73;;;19.90;75.70;;;;;;5055852;28;20024;-73
2021/08/06 02:10:01;;;;;;;1.80;1.70;;;19.90;75.60;;;;;;5055953;28;20043;-73
2021/08/06 02:12:27;;;;;;;2.08;1.70;;;19.90;75.60;;;;;;5055981;28;20109;-74
2021/08/06 02:14:53;;;;;;;1.70;1.60;;;19.90;75.60;;;;;;5056001;28;20078;-73
2021/08/06 02:17:20;;;;;;;1.60;1.50;;;19.90;75.60;;;;;;5073514;28;20048;-74
2021/08/06 02:19:47;;;;;;;3.00;1.80;;;19.90;75.60;;;;;;5055615;28;20028;-74
2021/08/06 02:22:14;;;;;;;1.90;1.70;;;19.90;75.60;;;;;;5073628;28;20510;-74
2021/08/06 02:24:42;;;;;;;2.42;1.70;;;19.90;75.60;;;;;;5055587;28;20032;-74
2021/08/06 02:27:09;;;;;;;2.40;1.67;;;19.90;75.70;;;;;;5055736;28;20024;-74
2021/08/06 02:29:35;;;;;;;2.00;1.80;;;19.90;75.70;;;;;;5055535;28;20031;-74
2021/08/06 02:32:02;;;;;;;2.08;1.73;;;19.90;75.80;;;;;;5073688;28;20089;-73
2021/08/06 02:34:29;;;;;;;2.00;1.77;;;19.80;75.90;;;;;;5055466;28;20377;-74
2021/08/06 02:36:55;;;;;;;1.92;1.70;;;19.90;76.00;;;;;;5073347;28;20021;-74
2021/08/06 02:39:25;;;;;;;1.83;1.60;;;19.80;76.00;;;;;;5055295;28;20438;-74
2021/08/06 02:41:51;;;;;;;2.35;1.85;;;19.80;76.10;;;;;;5055379;28;20360;-73
2021/08/06 02:44:17;;;;;;;2.28;1.70;;;19.80;76.10;;;;;;5073134;28;20492;-74
2021/08/06 02:46:43;;;;;;;1.92;1.80;;;19.80;76.10;;;;;;5055130;28;20055;-75
2021/08/06 02:49:09;;;;;;;2.10;1.90;;;19.80;76.20;;;;;;5071911;28;20017;-74
2021/08/06 02:51:35;;;;;;;2.80;2.00;;;19.80;76.20;;;;;;5055183;28;20036;-74
2021/08/06 02:54:02;;;;;;;1.70;1.60;;;19.80;76.30;;;;;;5054959;28;20024;-73
2021/08/06 02:56:28;;;;;;;1.75;1.65;;;19.80;76.20;;;;;;5055097;28;20024;-73
2021/08/06 02:58:54;;;;;;;1.90;1.73;;;19.80;76.30;;;;;;5054137;28;20025;-73
2021/08/06 03:01:20;;;;;;;2.55;1.90;;;19.70;76.30;;;;;;5073011;28;20499;-74
2021/08/06 03:03:45;;;;;;;1.90;1.80;;;19.70;76.40;;;;;;5055049;28;20476;-74
2021/08/06 03:06:11;;;;;;;2.28;1.75;;;19.70;76.50;;;;;;5055045;28;20032;-72
2021/08/06 03:08:36;;;;;;;2.13;1.73;;;19.70;76.50;;;;;;5054959;28;20388;-74
2021/08/06 03:11:02;;;;;;;1.73;1.63;;;19.70;76.60;;;;;;5054991;28;20490;-73
2021/08/06 03:13:28;;;;;;;4.07;2.00;;;19.60;76.70;;;;;;5054819;28;20091;-74
2021/08/06 03:15:53;;;;;;;1.90;1.70;;;19.60;76.70;;;;;;5072758;28;20099;-74
2021/08/06 03:18:19;;;;;;;1.65;1.52;;;19.70;76.90;;;;;;5051286;28;20075;-74
2021/08/06 03:20:45;;;;;;;1.70;1.60;;;19.70;76.90;;;;;;5051419;28;20052;-74
2021/08/06 03:23:10;;;;;;;1.60;1.50;;;19.60;76.80;;;;;;5051285;28;20029;-73
2021/08/06 03:25:36;;;;;;;1.85;1.73;;;19.60;76.70;;;;;;5052615;28;20025;-74
2021/08/06 03:28:02;;;;;;;2.13;1.92;;;19.60;76.70;;;;;;5052994;28;20074;-74
2021/08/06 03:30:27;;;;;;;1.90;1.80;;;19.60;76.70;;;;;;5051286;28;20076;-74
2021/08/06 03:32:53;;;;;;;4.13;1.67;;;19.60;76.60;;;;;;5051155;28;20112;-73
2021/08/06 03:35:19;;;;;;;1.95;1.67;;;19.60;76.60;;;;;;5052518;28;20025;-73
2021/08/06 03:41:06;;;;;;;2.08;1.88;;;19.60;76.60;;;;;;5052805;28;20078;-75
2021/08/06 03:43:32;;;;;;;2.28;1.85;;;19.60;76.60;;;;;;5051116;28;20056;-73
2021/08/06 03:45:57;;;;;;;2.40;2.00;;;19.60;76.70;;;;;;5051064;28;20477;-72
2021/08/06 03:48:23;;;;;;;2.10;1.88;;;19.60;76.70;;;;;;5052448;28;20021;-73
2021/08/06 03:50:48;;;;;;;1.95;1.70;;;19.60;76.70;;;;;;5051490;28;20035;-73
2021/08/06 03:53:14;;;;;;;2.20;1.75;;;19.60;76.70;;;;;;5050937;28;20485;-74
2021/08/06 03:55:40;;;;;;;2.20;2.00;;;19.60;76.80;;;;;;5051277;28;20544;-73
2021/08/06 03:58:05;;;;;;;2.17;1.90;;;19.60;76.80;;;;;;5051193;28;20025;-74
2021/08/06 04:00:34;;;;;;;2.38;1.95;;;19.60;76.80;;;;;;5051333;28;20028;-74
2021/08/06 04:03:00;;;;;;;2.53;1.88;;;19.60;76.80;;;;;;5051209;28;20025;-74
2021/08/06 04:05:25;;;;;;;2.63;1.80;;;19.60;76.90;;;;;;5052469;28;20029;-73
2021/08/06 04:07:51;;;;;;;2.00;1.70;;;19.60;77.00;;;;;;5052364;28;20035;-74
2021/08/06 04:10:21;;;;;;;2.13;1.90;;;19.60;77.10;;;;;;5052481;28;20021;-74
2021/08/06 04:12:48;;;;;;;2.35;1.90;;;19.50;77.30;;;;;;5054930;28;20067;-76
2021/08/06 04:15:14;;;;;;;2.17;1.98;;;19.50;77.50;;;;;;5055100;28;20115;-74
2021/08/06 04:17:41;;;;;;;2.67;1.60;;;19.50;77.80;;;;;;5054589;28;20048;-74
2021/08/06 04:20:07;;;;;;;1.80;1.48;;;19.40;78.10;;;;;;5054662;28;20025;-75
2021/08/06 04:22:33;;;;;;;1.80;1.58;;;19.30;78.30;;;;;;5054639;28;20025;-75
2021/08/06 04:24:59;;;;;;;1.60;1.50;;;19.30;78.50;;;;;;5055218;28;20021;-75
2021/08/06 04:27:25;;;;;;;1.45;1.35;;;19.30;78.70;;;;;;5054705;28;20094;-74
2021/08/06 04:29:50;;;;;;;2.75;1.40;;;19.20;78.90;;;;;;5054831;28;20079;-74
2021/08/06 04:32:16;;;;;;;1.40;1.30;;;19.20;79.10;;;;;;5054541;28;20055;-74
2021/08/06 04:34:42;;;;;;;1.70;1.60;;;19.20;79.40;;;;;;5054735;28;20588;-75
2021/08/06 04:37:07;;;;;;;2.05;1.42;;;19.20;79.60;;;;;;5054599;28;20021;-76
2021/08/06 04:39:34;;;;;;;1.77;1.52;;;19.10;79.70;;;;;;5054685;28;20509;-74
2021/08/06 04:42:00;;;;;;;3.17;1.65;;;19.10;79.90;;;;;;5054711;28;20124;-75
2021/08/06 04:44:26;;;;;;;2.15;1.40;;;19.10;79.90;;;;;;5055580;28;20048;-74
2021/08/06 04:46:51;;;;;;;1.30;1.20;;;19.10;80.10;;;;;;5054631;28;20499;-74
2021/08/06 04:49:17;;;;;;;1.15;1.05;;;19.10;80.10;;;;;;5055721;28;20086;-74
2021/08/06 04:51:42;;;;;;;1.08;1.08;;;19.10;80.20;;;;;;5054310;28;20078;-74
2021/08/06 04:54:08;;;;;;;1.67;1.40;;;19.10;80.10;;;;;;5054322;28;20029;-74
2021/08/06 04:56:34;;;;;;;1.65;1.33;;;19.10;80.20;;;;;;5054198;28;20031;-74
2021/08/06 04:59:00;;;;;;;1.50;1.30;;;19.10;80.20;;;;;;5054584;28;20019;-75
2021/08/06 05:01:27;;;;;;;3.80;1.50;;;19.10;80.30;;;;;;5054155;28;20399;-74
2021/08/06 05:03:53;;;;;;;1.60;1.50;;;19.10;80.30;;;;;;5054190;28;20025;-75
2021/08/06 05:06:19;;;;;;;2.10;1.55;;;19.10;80.40;;;;;;5055508;28;20044;-75
2021/08/06 05:08:48;;;;;;;1.58;1.45;;;19.10;80.50;;;;;;5053895;28;20053;-74
2021/08/06 05:11:14;;;;;;;1.55;1.42;;;19.10;80.50;;;;;;5053711;28;20028;-77
2021/08/06 05:17:01;;;;;;;1.30;1.20;;;19.20;80.60;;;;;;5055603;28;20599;-74
2021/08/06 05:19:27;;;;;;;2.08;1.30;;;19.20;80.40;;;;;;5053759;28;20120;-76
2021/08/06 05:21:53;;;;;;;1.60;1.40;;;19.20;80.40;;;;;;5052669;28;20025;-76
2021/08/06 05:24:20;;;;;;;1.40;1.30;;;19.20;80.50;;;;;;5053558;28;20035;-74
2021/08/06 05:30:08;;;;;;;1.35;1.25;;;19.30;80.60;;;;;;5055304;28;20043;-74
2021/08/06 05:32:34;;;;;;;1.50;1.35;;;19.30;80.50;;;;;;5053577;28;20029;-75
2021/08/06 05:38:39;;;;;;;1.50;1.40;;;19.30;80.50;;;;;;5055027;28;20051;-76
2021/08/06 05:41:04;;;;;;;1.85;1.40;;;19.30;80.50;;;;;;5054795;28;20029;-76
2021/08/06 05:43:30;;;;;;;3.15;1.20;;;19.30;80.50;;;;;;5053501;28;20150;-74
2021/08/06 05:45:56;;;;;;;1.65;1.15;;;19.30;80.50;;;;;;5053258;28;20024;-74
2021/08/06 05:48:22;;;;;;;2.15;1.30;;;19.30;80.60;;;;;;5053162;28;20028;-74
2021/08/06 05:50:47;;;;;;;1.27;1.17;;;19.30;80.70;;;;;;5053106;28;20091;-74
2021/08/06 05:53:13;;;;;;;2.00;1.30;;;19.30;80.70;;;;;;5052818;28;20040;-74
2021/08/06 05:55:39;;;;;;;1.67;1.38;;;19.40;80.70;;;;;;5052965;28;20025;-74
2021/08/06 05:58:04;;;;;;;1.55;1.33;;;19.40;80.60;;;;;;5052931;28;20023;-74
2021/08/06 06:00:30;;;;;;;2.42;2.22;;;19.40;80.70;;;;;;5052817;28;20033;-74
2021/08/06 06:02:56;;;;;;;2.63;2.05;;;19.40;80.70;;;;;;5052915;28;20017;-74
2021/08/06 06:05:22;;;;;;;1.60;1.50;;;19.40;80.80;;;;;;5052827;28;20112;-74
2021/08/06 06:07:49;;;;;;;2.60;1.48;;;19.40;80.80;;;;;;5052762;28;20124;-73
2021/08/06 06:10:19;;;;;;;1.63;1.52;;;19.40;80.90;;;;;;5052706;28;20029;-73
2021/08/06 06:12:45;;;;;;;1.65;1.55;;;19.40;81.70;;;;;;5052583;28;20078;-74
2021/08/06 06:15:11;;;;;;;1.70;1.60;;;19.40;81.10;;;;;;5052727;28;20489;-73
2021/08/06 06:17:36;;;;;;;1.58;1.48;;;19.30;81.10;;;;;;5052295;28;20045;-72
2021/08/06 06:20:03;;;;;;;1.80;1.63;;;19.30;81.10;;;;;;5052310;28;20031;-71
2021/08/06 06:22:29;;;;;;;1.30;1.02;;;19.40;81.20;;;;;;5052214;28;20108;-72
2021/08/06 06:24:55;;;;;;;1.48;1.38;;;19.50;81.10;;;;;;5053721;28;20053;-72
2021/08/06 06:27:20;;;;;;;1.63;1.52;;;19.50;81.10;;;;;;5053646;28;20032;-77
2021/08/06 06:29:46;;;;;;;1.30;1.20;;;19.50;81.20;;;;;;5052254;28;20142;-76
2021/08/06 06:32:12;;;;;;;1.50;1.40;;;19.40;81.30;;;;;;5053381;28;20021;-76
2021/08/06 06:34:37;;;;;;;2.10;1.52;;;19.50;81.60;;;;;;5052246;28;20048;-77
2021/08/06 06:37:03;;;;;;;1.65;1.50;;;19.50;81.80;;;;;;5052174;28;20017;-76
2021/08/06 06:39:29;;;;;;;2.03;1.40;;;19.40;81.90;;;;;;5052008;28;20020;-77
2021/08/06 06:41:54;;;;;;;1.88;1.40;;;19.40;82.00;;;;;;5051923;28;20047;-75
2021/08/06 06:44:20;;;;;;;1.42;1.30;;;19.40;82.10;;;;;;5053446;28;20111;-76
2021/08/06 06:46:45;;;;;;;1.20;1.10;;;19.40;82.20;;;;;;5053285;28;20510;-75
2021/08/06 06:52:33;;;;;;;1.73;1.63;;;19.40;82.30;;;;;;5053224;28;20035;-75
2021/08/06 06:54:59;;;;;;;2.08;1.88;;;19.40;82.30;;;;;;5052014;28;20516;-75
2021/08/06 06:57:25;;;;;;;1.30;1.20;;;19.40;82.50;;;;;;5051800;28;20112;-76
2021/08/06 06:59:50;;;;;;;1.35;1.25;;;19.30;82.50;;;;;;5051915;28;20075;-75
2021/08/06 07:02:16;;;;;;;0.93;0.93;;;19.50;82.60;;;;;;5051727;28;20025;-74
2021/08/06 07:04:42;;;;;;;1.83;1.30;;;19.50;82.40;;;;;;5052902;28;20028;-76
2021/08/06 07:07:07;;;;;;;1.67;1.17;;;19.70;82.20;;;;;;5051782;28;20017;-76
2021/08/06 07:09:33;;;;;;;1.25;1.15;;;19.80;82.00;;;;;;5051353;28;20031;-76
2021/08/06 07:11:58;;;;;;;1.27;1.17;;;20.00;81.80;;;;;;5051675;28;20472;-76
2021/08/06 07:14:24;;;;;;;1.75;1.17;;;20.10;81.60;;;;;;5051279;28;20029;-76
2021/08/06 07:16:50;;;;;;;1.77;1.50;;;20.20;81.40;;;;;;5051344;28;20021;-76
2021/08/06 07:19:15;;;;;;;1.42;1.33;;;20.30;81.20;;;;;;5051383;28;20048;-75
2021/08/06 07:21:46;;;;;;;1.65;1.40;;;20.40;81.00;;;;;;5051417;28;20024;-75
2021/08/06 07:24:12;;;;;;;1.52;1.33;;;20.50;80.90;;;;;;5052851;28;20491;-75
2021/08/06 07:26:37;;;;;;;1.50;1.40;;;20.60;80.60;;;;;;5052694;28;20028;-75
2021/08/06 07:29:03;;;;;;;1.60;1.50;;;20.70;80.50;;;;;;5051477;28;20025;-75
2021/08/06 07:31:56;;;;;;;3.15;1.88;;;20.70;80.40;;;;;;5052847;28;20029;-76
2021/08/06 07:34:22;;;;;;;1.98;1.88;;;20.70;80.30;;;;;;5051320;28;20039;-76
2021/08/06 07:36:47;;;;;;;1.98;1.80;;;20.70;80.20;;;;;;5051897;28;20021;-76
2021/08/06 07:39:13;;;;;;;2.00;1.90;;;20.70;80.10;;;;;;5051476;28;20040;-77
2021/08/06 07:45:01;;;;;;;3.55;3.25;;;20.50;80.20;;;;;;5054212;28;20056;-76
2021/08/06 07:47:26;;;;;;;2.90;2.60;;;20.50;80.40;;;;;;5056701;28;20025;-76
2021/08/06 07:49:52;;;;;;;2.55;2.22;;;20.50;80.50;;;;;;5059310;28;20033;-76
2021/08/06 07:52:18;;;;;;;2.22;2.00;;;20.50;80.40;;;;;;5056706;28;20101;-77
2021/08/06 07:54:44;;;;;;;1.80;1.70;;;20.50;80.20;;;;;;5055397;28;20013;-77
2021/08/06 07:57:11;;;;;;;1.98;1.88;;;20.50;80.10;;;;;;5055205;28;20017;-76
2021/08/06 07:59:38;;;;;;;2.45;1.80;;;20.50;80.00;;;;;;5058947;28;20481;-76
2021/08/06 08:05:26;;;;;;;2.30;2.13;;;20.70;79.90;;;;;;5057097;28;20075;-76
2021/08/06 08:07:52;;;;;;;2.20;2.00;;;20.70;79.60;;;;;;5034410;28;20030;-76
2021/08/06 08:10:19;;;;;;;3.65;2.97;;;20.80;79.40;;;;;;5017706;28;20032;-77
2021/08/06 08:12:47;;;;;;;2.95;2.67;;;20.80;79.20;;;;;;5017617;28;20037;-75
2021/08/06 08:18:36;;;;;;;3.05;2.75;;;20.90;78.80;;;;;;5046294;28;20048;-76
2021/08/06 08:21:03;;;;;;;2.80;2.60;;;20.90;78.80;;;;;;5050760;28;20111;-76
2021/08/06 08:23:29;;;;;;;2.85;2.65;;;21.00;78.70;;;;;;5037398;28;20040;-76
2021/08/06 08:25:54;;;;;;;2.63;2.42;;;21.00;78.50;;;;;;5037345;28;20024;-76
2021/08/06 08:28:24;;;;;;;2.83;2.47;;;21.00;78.40;;;;;;5036987;28;20408;-74
2021/08/06 08:30:50;;;;;;;3.30;2.40;;;21.10;78.20;;;;;;5037118;28;20106;-75
2021/08/06 08:33:17;;;;;;;2.35;2.20;;;21.10;78.00;;;;;;5036874;28;20503;-75
2021/08/06 08:35:44;;;;;;;2.75;2.30;;;21.10;78.00;;;;;;5036928;28;20036;-75
2021/08/06 08:38:10;;;;;;;2.50;2.30;;;21.20;77.80;;;;;;5038267;28;20039;-74
2021/08/06 08:43:43;;;;;;;;;;;21.20;77.30;;;;;;5056207;28;20044;-76
2021/08/06 08:46:09;;;;;;;3.72;2.28;;;21.20;77.10;;;;;;5054157;28;19905;-75
2021/08/06 08:48:35;;;;;;;2.58;2.20;;;21.10;76.90;;;;;;5054192;28;20484;-75
2021/08/06 08:51:02;;;;;;;3.22;2.38;;;21.10;76.80;;;;;;5055533;28;20468;-75
2021/08/06 08:53:29;;;;;;;4.05;2.80;;;21.10;76.80;;;;;;5054394;28;20017;-75
2021/08/06 08:55:55;;;;;;;3.35;2.50;;;21.10;76.70;;;;;;5054013;28;20025;-74
2021/08/06 08:58:21;;;;;;;2.30;2.08;;;21.10;76.50;;;;;;5053950;28;20511;-74
2021/08/06 09:00:46;;;;;;;3.85;2.33;;;21.20;76.30;;;;;;5053968;28;20075;-76
2021/08/06 09:03:42;;;;;;;2.30;2.10;;;21.30;76.00;;;;;;5053869;28;20033;-74
2021/08/06 09:06:08;;;;;;;2.58;2.30;;;21.50;75.50;;;;;;5053959;28;20024;-74
2021/08/06 09:08:35;;;;;;;4.15;2.00;;;21.60;74.90;;;;;;5055184;28;20017;-74
2021/08/06 09:11:02;;;;;;;3.30;2.25;;;21.80;74.80;;;;;;5054711;28;20542;-74
2021/08/06 09:13:28;;;;;;;3.25;2.30;;;21.90;74.40;;;;;;5053836;28;20041;-75
2021/08/06 09:15:58;;;;;;;3.10;2.17;;;21.90;74.10;;;;;;5053720;28;20393;-75
2021/08/06 09:18:26;;;;;;;2.33;1.95;;;22.00;73.90;;;;;;5053428;28;20480;-75
2021/08/06 09:20:54;;;;;;;3.55;2.10;;;22.00;73.70;;;;;;5053662;28;20543;-76
2021/08/06 09:23:38;;;;;;;3.33;2.20;;;22.20;73.50;;;;;;5053731;28;20056;-75
2021/08/06 09:26:05;;;;;;;3.22;1.80;;;22.20;72.90;;;;;;5054836;28;20397;-75
2021/08/06 09:28:31;;;;;;;3.15;2.22;;;22.30;72.80;;;;;;5053565;28;20461;-75
2021/08/06 09:30:57;;;;;;;1.98;1.52;;;22.30;72.50;;;;;;5053448;28;20051;-75
2021/08/06 09:33:32;;;;;;;3.33;1.85;;;22.30;72.30;;;;;;5053287;28;20040;-75
2021/08/06 09:36:18;;;;;;;3.80;1.92;;;22.30;72.50;;;;;;5053684;28;20079;-75
2021/08/06 09:42:27;;;;;;;1.73;1.50;;;22.30;71.10;;;;;;5054654;28;20023;-75
2021/08/06 09:45:07;;;;;;;4.13;2.10;;;22.30;71.00;;;;;;5053179;28;20025;-74
2021/08/06 09:47:34;;;;;;;2.08;1.45;;;22.20;70.90;;;;;;5052945;28;20029;-74
2021/08/06 09:50:04;;;;;;;2.85;1.70;;;22.10;70.90;;;;;;5053093;28;20374;-74
2021/08/06 09:52:41;;;;;;;2.70;1.52;;;22.10;71.20;;;;;;5052810;28;20380;-75
2021/08/06 09:55:08;;;;;;;2.25;1.65;;;22.10;71.10;;;;;;5052967;28;20385;-74
2021/08/06 09:57:34;;;;;;;2.38;1.50;;;22.00;71.00;;;;;;5052911;28;20033;-74
2021/08/06 10:00:00;;;;;;;1.60;1.50;;;22.10;70.90;;;;;;5053012;28;20526;-75
2021/08/06 10:02:28;;;;;;;2.25;1.35;;;22.20;71.40;;;;;;5052898;28;20029;-75
2021/08/06 10:05:12;;;;;;;2.38;1.55;;;22.30;70.50;;;;;;5053059;28;20028;-74
2021/08/06 10:07:46;;;;;;;2.80;1.50;;;22.50;70.20;;;;;;5052448;28;20166;-75
2021/08/06 10:10:18;;;;;;;1.40;1.30;;;22.60;69.60;;;;;;5052749;28;20021;-75
2021/08/06 10:12:45;;;;;;;2.42;1.75;;;22.60;69.40;;;;;;5052720;28;20029;-73
2021/08/06 10:15:11;;;;;;;1.40;1.30;;;22.50;69.30;;;;;;5052696;28;20048;-74
2021/08/06 10:17:38;;;;;;;1.45;1.30;;;22.40;69.10;;;;;;5056577;28;20063;-75
2021/08/06 10:20:10;;;;;;;2.20;1.52;;;22.30;69.10;;;;;;5073958;28;20039;-75
2021/08/06 10:22:35;;;;;;;4.10;1.70;;;22.10;69.50;;;;;;5073786;28;20038;-74
2021/08/06 10:25:05;;;;;;;1.88;1.50;;;22.00;69.90;;;;;;5073782;28;20032;-74
2021/08/06 10:27:31;;;;;;;2.80;2.13;;;21.90;70.40;;;;;;5055602;28;20075;-74
2021/08/06 10:33:26;;;;;;;3.03;1.70;;;21.70;70.80;;;;;;5074136;28;20169;-75
2021/08/06 10:35:54;;;;;;;1.80;1.40;;;21.70;71.20;;;;;;5055790;28;20044;-75
2021/08/06 10:38:35;;;;;;;4.43;1.70;;;21.70;71.20;;;;;;5055559;28;20031;-74
2021/08/06 10:41:16;;;;;;;2.10;1.20;;;21.70;70.80;;;;;;5055765;28;20024;-74
2021/08/06 10:43:58;;;;;;;3.90;1.30;;;21.70;70.80;;;;;;5055350;28;20025;-75
2021/08/06 10:46:24;;;;;;;3.83;1.33;;;21.80;70.50;;;;;;5055372;28;20032;-74
2021/08/06 10:48:54;;;;;;;1.83;1.20;;;22.00;70.40;;;;;;5055404;28;20020;-75
2021/08/06 10:51:24;;;;;;;2.47;1.33;;;22.10;69.80;;;;;;5070385;28;20102;-76
2021/08/06 10:53:59;;;;;;;1.30;1.20;;;22.20;69.40;;;;;;5021779;28;20050;-75
2021/08/06 10:56:29;;;;;;;1.70;1.20;;;22.30;68.80;;;;;;5055400;28;20515;-76
2021/08/06 10:59:48;;;;;;;1.88;1.20;;;22.50;68.70;;;;;;5055205;28;20024;-76
2021/08/06 11:02:44;;;;;;;1.95;1.50;;;22.70;68.00;;;;;;5055069;28;20071;-75
2021/08/06 11:05:30;;;;;;;1.42;1.30;;;22.90;67.90;;;;;;5072932;28;20032;-76
2021/08/06 11:07:59;;;;;;;4.18;1.40;;;23.10;67.40;;;;;;5055116;28;20032;-76
2021/08/06 11:10:57;;;;;;;2.00;1.02;;;23.20;67.00;;;;;;5055333;28;20028;-76
2021/08/06 11:13:32;;;;;;;2.33;1.40;;;23.40;66.40;;;;;;5009121;28;20052;-74
2021/08/06 11:16:08;;;;;;;2.40;1.58;;;23.40;66.00;;;;;;5055159;28;20407;-77
2021/08/06 11:18:41;;;;;;;3.35;1.33;;;23.50;65.90;;;;;;5072622;28;20135;-76
2021/08/06 11:21:08;;;;;;;2.65;1.08;;;23.50;65.80;;;;;;5071132;28;20484;-75
2021/08/06 11:23:35;;;;;;;1.42;1.10;;;23.60;65.80;;;;;;5071656;28;20458;-75
2021/08/06 11:26:11;;;;;;;2.20;1.05;;;23.60;65.50;;;;;;5071894;28;20036;-75
2021/08/06 11:28:37;;;;;;;1.05;0.90;;;23.60;65.40;;;;;;5054752;28;20062;-75
2021/08/06 11:31:20;;;;;;;1.98;0.90;;;23.60;65.10;;;;;;5073162;28;20074;-76
2021/08/06 11:33:58;;;;;;;1.10;1.00;;;23.60;64.90;;;;;;5071666;28;20028;-75
2021/08/06 11:36:23;;;;;;;3.38;1.10;;;23.50;65.00;;;;;;5054911;28;20392;-77
2021/08/06 11:38:49;;;;;;;1.45;1.00;;;23.50;64.90;;;;;;5071483;28;20054;-75
2021/08/06 11:41:15;;;;;;;0.95;0.80;;;23.60;64.70;;;;;;5071522;28;20526;-75
2021/08/06 11:43:40;;;;;;;1.33;0.90;;;23.60;64.40;;;;;;5054696;28;20052;-77
2021/08/06 11:46:07;;;;;;;1.20;0.95;;;23.70;64.20;;;;;;5071605;28;20031;-76
2021/08/06 11:51:59;;;;;;;1.17;1.08;;;23.70;64.10;;;;;;5073049;28;20086;-76
2021/08/06 11:54:25;;;;;;;1.15;0.98;;;23.60;63.90;;;;;;5071274;28;20025;-76
2021/08/06 11:56:58;;;;;;;1.13;1.02;;;23.60;64.00;;;;;;5071422;28;20510;-77
2021/08/06 11:59:25;;;;;;;2.13;1.00;;;23.70;63.40;;;;;;5071341;28;20028;-76
2021/08/06 12:02:18;;;;;;;1.10;1.00;;;23.70;63.10;;;;;;5071210;28;20024;-76
2021/08/06 12:08:14;;;;;;;0.80;0.80;;;23.90;62.80;;;;;;5072981;28;20047;-77
2021/08/06 12:10:41;;;;;;;1.80;1.00;;;24.00;62.50;;;;;;5071250;28;20036;-78
2021/08/06 12:16:35;;;;;;;0.90;0.90;;;23.80;61.90;;;;;;5030731;28;20152;-75
2021/08/06 12:19:02;;;;;;;2.22;0.95;;;23.60;62.30;;;;;;5013656;28;20116;-75
2021/08/06 12:21:37;;;;;;;1.00;0.90;;;23.40;62.50;;;;;;5013810;28;20516;-75
2021/08/06 12:27:27;;;;;;;1.35;0.90;;;23.10;63.10;;;;;;4991548;28;20036;-75
2021/08/06 12:29:53;;;;;;;1.67;1.08;;;23.10;63.10;;;;;;4990910;28;20122;-75
2021/08/06 12:32:19;;;;;;;0.98;0.85;;;23.20;63.10;;;;;;4991157;28;20165;-76
2021/08/06 12:34:50;;;;;;;1.48;1.05;;;23.00;63.70;;;;;;4994553;28;20150;-75
2021/08/06 12:37:18;;;;;;;0.95;0.85;;;22.90;64.90;;;;;;4978274;28;20113;-75
2021/08/06 12:39:46;;;;;;;0.85;0.77;;;22.90;65.80;;;;;;4994385;28;20046;-75
2021/08/06 12:45:33;;;;;;;0.60;0.60;;;23.10;66.70;;;;;;5034199;28;20125;-75
2021/08/06 12:48:03;;;;;;;1.15;0.60;;;23.20;66.40;;;;;;5033562;28;20130;-75
2021/08/06 12:50:31;;;;;;;0.50;0.50;;;23.30;66.00;;;;;;5033382;28;20493;-75
2021/08/06 12:53:04;;;;;;;0.75;0.52;;;23.40;65.90;;;;;;5033372;28;20037;-75
2021/08/06 12:55:31;;;;;;;0.55;0.55;;;23.60;65.40;;;;;;5048023;28;20044;-75
2021/08/06 12:58:03;;;;;;;0.80;0.60;;;23.70;64.90;;;;;;5054113;28;20032;-76
2021/08/06 13:00:33;;;;;;;0.55;0.55;;;24.00;64.40;;;;;;5054508;28;20504;-76
2021/08/06 13:03:10;;;;;;;0.65;0.63;;;24.20;64.20;;;;;;5054189;28;20497;-75
2021/08/06 13:05:39;;;;;;;0.73;0.60;;;24.40;63.80;;;;;;5053941;28;20043;-75
2021/08/06 13:08:10;;;;;;;1.27;1.00;;;24.50;63.30;;;;;;5055246;28;20153;-77
2021/08/06 13:10:36;;;;;;;1.55;0.85;;;24.60;62.90;;;;;;5053990;28;20159;-76
2021/08/06 13:13:01;;;;;;;1.33;0.82;;;24.60;62.80;;;;;;5053838;28;20119;-75
2021/08/06 13:15:27;;;;;;;1.88;0.82;;;24.60;62.70;;;;;;5053810;28;20029;-76
2021/08/06 13:17:53;;;;;;;1.33;0.70;;;24.50;62.70;;;;;;5053615;28;20502;-75
2021/08/06 13:20:19;;;;;;;1.38;0.90;;;24.30;62.80;;;;;;5053834;28;20108;-76
2021/08/06 13:22:45;;;;;;;1.05;0.90;;;24.30;62.90;;;;;;5053626;28;20029;-77
2021/08/06 13:25:13;;;;;;;1.05;0.80;;;24.50;62.80;;;;;;5055056;28;20166;-76
2021/08/06 13:27:39;;;;;;;0.85;0.70;;;24.60;62.60;;;;;;5055026;28;20033;-76
2021/08/06 13:30:07;;;;;;;1.50;0.90;;;24.70;62.30;;;;;;5053489;28;20513;-76
2021/08/06 13:32:34;;;;;;;1.33;0.70;;;24.70;62.10;;;;;;5053429;28;20520;-75
2021/08/06 13:35:00;;;;;;;1.20;1.00;;;24.70;62.20;;;;;;5053338;28;20071;-75
2021/08/06 13:37:26;;;;;;;1.02;0.70;;;24.60;62.10;;;;;;5053532;28;20025;-75
2021/08/06 13:39:53;;;;;;;0.82;0.65;;;24.60;62.20;;;;;;5053393;28;20028;-76
2021/08/06 13:42:18;;;;;;;1.00;0.80;;;24.50;62.10;;;;;;5054006;28;20032;-76
2021/08/06 13:44:44;;;;;;;1.60;1.00;;;24.40;62.20;;;;;;5053240;28;20025;-75
2021/08/06 13:47:10;;;;;;;1.10;1.00;;;24.30;62.40;;;;;;5053333;28;20032;-76